createdAt,value
2016-09-14T00:00:28.050Z,9.5
2016-09-14T00:01:28.042Z,9.48
2016-09-14T00:02:28.028Z,9.5
2016-09-14T00:03:28.032Z,9.4
2016-09-14T00:04:28.020Z,9.59
2016-09-14T00:05:28.022Z,9.67
2016-09-14T00:06:28.012Z,9.62
2016-09-14T00:07:28.014Z,9.6
2016-09-14T00:08:27.971Z,9.58
2016-09-14T00:09:27.984Z,9.52
2016-09-14T00:10:27.972Z,9.35
2016-09-14T00:11:27.964Z,9.32
2016-09-14T00:12:27.941Z,9.24
2016-09-14T00:13:27.962Z,9.24
2016-09-14T00:14:27.940Z,9.22
2016-09-14T00:15:27.948Z,9.13
2016-09-14T00:16:27.923Z,9.15
2016-09-14T00:17:27.921Z,9.12
2016-09-14T00:18:27.897Z,9.26
2016-09-14T00:19:27.912Z,9.23
2016-09-14T00:20:27.895Z,9.16
2016-09-14T00:21:27.893Z,9.24
2016-09-14T00:22:27.868Z,9.37
2016-09-14T00:23:27.876Z,9.37
2016-09-14T00:24:27.866Z,9.41
2016-09-14T00:25:27.861Z,9.37
2016-09-14T00:26:27.865Z,9.5
2016-09-14T00:27:27.853Z,9.44
2016-09-14T00:28:27.853Z,9.48
2016-09-14T00:29:27.841Z,9.48
2016-09-14T00:30:27.842Z,9.5
2016-09-14T00:31:27.845Z,9.49
2016-09-14T00:32:27.822Z,9.35
2016-09-14T00:33:27.789Z,9.22
2016-09-14T00:34:27.799Z,9.26
2016-09-14T00:35:27.809Z,9.3
2016-09-14T00:36:27.799Z,9.2
2016-09-14T00:37:27.779Z,9.13
2016-09-14T00:38:27.768Z,9.12
2016-09-14T00:39:27.778Z,9.16
2016-09-14T00:40:27.762Z,9.19
2016-09-14T00:41:27.747Z,9.13
2016-09-14T00:42:27.742Z,9.22
2016-09-14T00:43:27.720Z,9.23
2016-09-14T00:44:27.713Z,9.23
2016-09-14T00:45:27.737Z,9.23
2016-09-14T00:46:27.711Z,9.24
2016-09-14T00:47:27.692Z,9.23
2016-09-14T00:48:27.698Z,9.24
2016-09-14T00:49:27.684Z,9.12
2016-09-14T00:50:27.673Z,9.15
2016-09-14T00:51:27.688Z,9.12
2016-09-14T00:52:27.667Z,9.06
2016-09-14T00:53:27.683Z,9.31
2016-09-14T00:54:27.658Z,9.31
2016-09-14T00:55:27.624Z,9.35
2016-09-14T00:56:27.629Z,9.37
2016-09-14T00:57:27.642Z,9.37
2016-09-14T00:58:27.633Z,9.38
2016-09-14T00:59:27.605Z,9.37
2016-09-14T01:00:27.612Z,9.38
2016-09-14T01:01:27.605Z,9.32
2016-09-14T01:02:27.584Z,9.41
2016-09-14T01:03:27.590Z,9.38
2016-09-14T01:04:27.577Z,9.44
2016-09-14T01:05:27.577Z,9.37
2016-09-14T01:06:27.559Z,9.4
2016-09-14T01:07:27.561Z,9.27
2016-09-14T01:08:27.542Z,9.08
2016-09-14T01:09:27.540Z,9.12
2016-09-14T01:10:27.519Z,9.17
2016-09-14T01:11:27.543Z,9.24
2016-09-14T01:12:27.518Z,9.3
2016-09-14T01:13:27.504Z,9.22
2016-09-14T01:14:27.510Z,9.27
2016-09-14T01:15:27.486Z,9.08
2016-09-14T01:16:27.482Z,9.1
2016-09-14T01:17:27.493Z,9.1
2016-09-14T01:18:27.453Z,9.06
2016-09-14T01:19:27.471Z,9.08
2016-09-14T01:20:27.470Z,9.04
2016-09-14T01:21:27.444Z,8.98
2016-09-14T01:22:27.441Z,9.03
2016-09-14T01:23:27.443Z,9.06
2016-09-14T01:24:27.412Z,9.06
2016-09-14T01:25:27.429Z,8.94
2016-09-14T01:26:27.390Z,9.08
2016-09-14T01:27:27.405Z,9.16
2016-09-14T01:28:27.400Z,9.15
2016-09-14T01:29:27.383Z,9.04
2016-09-14T01:30:27.380Z,9
2016-09-14T01:31:27.377Z,9
2016-09-14T01:32:27.345Z,9.12
2016-09-14T01:33:27.367Z,9.03
2016-09-14T01:34:27.344Z,9.08
2016-09-14T01:35:27.359Z,9.12
2016-09-14T01:36:27.349Z,9.12
2016-09-14T01:37:27.338Z,9.1
2016-09-14T01:38:27.472Z,9.06
2016-09-14T01:39:27.302Z,9.06
2016-09-14T01:40:27.305Z,9.13
2016-09-14T01:41:27.289Z,9.24
2016-09-14T01:42:27.304Z,9.23
2016-09-14T01:43:27.271Z,9.23
2016-09-14T01:44:27.276Z,9.13
2016-09-14T01:45:27.270Z,9.16
2016-09-14T01:46:27.261Z,9.17
2016-09-14T01:47:27.253Z,9.23
2016-09-14T01:48:27.242Z,9.23
2016-09-14T01:49:27.231Z,9.24
2016-09-14T01:50:27.231Z,9.26
2016-09-14T01:51:27.224Z,9.16
2016-09-14T01:52:27.210Z,9.12
2016-09-14T01:53:27.208Z,9.08
2016-09-14T01:54:27.189Z,9.17
2016-09-14T01:55:27.206Z,9.13
2016-09-14T01:56:27.183Z,9.22
2016-09-14T01:57:27.165Z,9.27
2016-09-14T01:58:27.187Z,9.24
2016-09-14T01:59:27.181Z,9.27
2016-09-14T02:00:27.174Z,9.26
2016-09-14T02:01:27.162Z,9.24
2016-09-14T02:02:27.145Z,9.2
2016-09-14T02:03:27.128Z,9.3
2016-09-14T02:04:27.127Z,9.35
2016-09-14T02:05:27.117Z,9.37
2016-09-14T02:06:27.107Z,9.42
2016-09-14T02:07:27.103Z,9.48
2016-09-14T02:08:27.111Z,9.53
2016-09-14T02:09:27.071Z,9.5
2016-09-14T02:10:27.090Z,9.44
2016-09-14T02:11:27.055Z,9.37
2016-09-14T02:12:27.062Z,9.48
2016-09-14T02:13:27.050Z,9.37
2016-09-14T02:14:27.054Z,9.49
2016-09-14T02:15:27.027Z,9.34
2016-09-14T02:16:27.032Z,9.37
2016-09-14T02:17:27.024Z,9.35
2016-09-14T02:18:27.012Z,9.35
2016-09-14T02:19:27.016Z,9.24
2016-09-14T02:20:27.001Z,9.23
2016-09-14T02:21:27.002Z,9.24
2016-09-14T02:22:26.991Z,9.23
2016-09-14T02:23:27.001Z,9.22
2016-09-14T02:24:26.993Z,9.23
2016-09-14T02:25:26.953Z,9.26
2016-09-14T02:26:26.983Z,9.2
2016-09-14T02:27:26.972Z,9.23
2016-09-14T02:28:26.930Z,9.2
2016-09-14T02:29:26.931Z,9.22
2016-09-14T02:30:27.215Z,9.2
2016-09-14T02:31:26.920Z,9.16
2016-09-14T02:32:26.907Z,9.2
2016-09-14T02:33:26.906Z,9.19
2016-09-14T02:34:26.911Z,9.24
2016-09-14T02:35:26.905Z,9.27
2016-09-14T02:36:26.894Z,9.23
2016-09-14T02:37:26.889Z,9.17
2016-09-14T02:38:26.918Z,9.13
2016-09-14T02:39:26.862Z,9.13
2016-09-14T02:40:26.880Z,9.15
2016-09-14T02:41:26.850Z,9.04
2016-09-14T02:42:26.859Z,8.97
2016-09-14T02:43:26.839Z,9.01
2016-09-14T02:44:26.817Z,8.91
2016-09-14T02:45:26.819Z,8.93
2016-09-14T02:46:26.824Z,8.86
2016-09-14T02:47:26.810Z,8.83
2016-09-14T02:48:26.785Z,8.89
2016-09-14T02:49:26.794Z,8.96
2016-09-14T02:50:26.801Z,8.98
2016-09-14T02:51:26.779Z,9.12
2016-09-14T02:52:26.778Z,9.08
2016-09-14T02:53:26.758Z,9.19
2016-09-14T02:54:26.750Z,9.19
2016-09-14T02:55:26.750Z,9.16
2016-09-14T02:56:26.728Z,9.17
2016-09-14T02:57:26.733Z,9.12
2016-09-14T02:58:26.741Z,9.12
2016-09-14T02:59:26.706Z,9
2016-09-14T03:00:26.719Z,9.08
2016-09-14T03:01:26.705Z,9.04
2016-09-14T03:02:26.695Z,9.12
2016-09-14T03:03:26.683Z,9.27
2016-09-14T03:04:26.681Z,9.32
2016-09-14T03:05:26.683Z,9.37
2016-09-14T03:06:26.680Z,9.52
2016-09-14T03:07:26.659Z,9.5
2016-09-14T03:08:26.637Z,9.52
2016-09-14T03:09:26.628Z,9.53
2016-09-14T03:10:26.633Z,9.6
2016-09-14T03:11:26.607Z,9.48
2016-09-14T03:12:26.621Z,9.6
2016-09-14T03:13:26.604Z,9.55
2016-09-14T03:14:26.603Z,9.62
2016-09-14T03:15:26.609Z,9.59
2016-09-14T03:16:26.580Z,9.6
2016-09-14T03:17:26.582Z,9.6
2016-09-14T03:18:26.581Z,9.5
2016-09-14T03:19:26.567Z,9.48
2016-09-14T03:20:26.537Z,9.49
2016-09-14T03:21:26.533Z,9.5
2016-09-14T03:22:26.552Z,9.56
2016-09-14T03:23:26.516Z,9.5
2016-09-14T03:24:26.549Z,9.58
2016-09-14T03:25:26.515Z,9.62
2016-09-14T03:26:26.514Z,9.55
2016-09-14T03:27:26.506Z,9.56
2016-09-14T03:28:26.501Z,9.56
2016-09-14T03:29:26.486Z,9.6
2016-09-14T03:30:26.482Z,9.59
2016-09-14T03:31:26.466Z,9.6
2016-09-14T03:32:26.467Z,9.59
2016-09-14T03:33:26.462Z,9.67
2016-09-14T03:34:26.452Z,9.71
2016-09-14T03:35:26.455Z,9.73
2016-09-14T03:36:26.454Z,9.73
2016-09-14T03:37:26.427Z,9.77
2016-09-14T03:38:26.446Z,9.83
2016-09-14T03:39:26.426Z,9.75
2016-09-14T03:40:26.403Z,9.83
2016-09-14T03:41:26.406Z,9.78
2016-09-14T03:42:26.389Z,9.77
2016-09-14T03:43:26.369Z,9.73
2016-09-14T03:44:26.373Z,9.73
2016-09-14T03:45:26.360Z,9.63
2016-09-14T03:46:26.369Z,9.65
2016-09-14T03:47:26.333Z,9.58
2016-09-14T03:48:26.332Z,9.67
2016-09-14T03:49:26.327Z,9.63
2016-09-14T03:50:26.334Z,9.53
2016-09-14T03:51:26.325Z,9.45
2016-09-14T03:52:26.309Z,9.34
2016-09-14T03:53:26.304Z,9.24
2016-09-14T03:54:26.301Z,9.4
2016-09-14T03:55:26.287Z,9.4
2016-09-14T03:56:26.281Z,9.37
2016-09-14T03:57:26.273Z,9.31
2016-09-14T03:58:26.265Z,9.37
2016-09-14T03:59:26.252Z,9.38
2016-09-14T04:00:26.248Z,9.5
2016-09-14T04:01:26.231Z,9.52
2016-09-14T04:02:26.244Z,9.5
2016-09-14T04:03:26.247Z,9.42
2016-09-14T04:04:26.222Z,9.5
2016-09-14T04:05:26.226Z,9.44
2016-09-14T04:06:26.223Z,9.52
2016-09-14T04:07:26.187Z,9.5
2016-09-14T04:08:26.199Z,9.5
2016-09-14T04:09:26.190Z,9.49
2016-09-14T04:10:26.183Z,9.49
2016-09-14T04:11:26.159Z,9.44
2016-09-14T04:12:26.147Z,9.44
2016-09-14T04:13:26.152Z,9.49
2016-09-14T04:14:26.136Z,9.52
2016-09-14T04:15:26.150Z,9.45
2016-09-14T04:16:26.127Z,9.42
2016-09-14T04:17:26.129Z,9.45
2016-09-14T04:18:26.117Z,9.44
2016-09-14T04:19:26.108Z,9.38
2016-09-14T04:20:26.117Z,9.35
2016-09-14T04:21:26.116Z,9.37
2016-09-14T04:22:26.089Z,9.38
2016-09-14T04:23:26.094Z,9.52
2016-09-14T04:24:26.085Z,9.35
2016-09-14T04:25:26.078Z,9.45
2016-09-14T04:26:26.061Z,9.35
2016-09-14T04:27:26.070Z,9.52
2016-09-14T04:28:26.048Z,9.49
2016-09-14T04:29:26.042Z,9.5
2016-09-14T04:30:26.032Z,9.56
2016-09-14T04:31:26.022Z,9.63
2016-09-14T04:32:26.012Z,9.62
2016-09-14T04:33:26.001Z,9.6
2016-09-14T04:34:25.992Z,9.42
2016-09-14T04:35:25.987Z,9.35
2016-09-14T04:36:25.967Z,9.56
2016-09-14T04:37:25.962Z,9.59
2016-09-14T04:38:25.955Z,9.5
2016-09-14T04:39:25.963Z,9.5
2016-09-14T04:40:25.949Z,9.49
2016-09-14T04:41:25.940Z,9.32
2016-09-14T04:42:25.927Z,9.23
2016-09-14T04:43:25.944Z,9.15
2016-09-14T04:44:25.936Z,9.16
2016-09-14T04:45:25.909Z,9.08
2016-09-14T04:46:25.913Z,9.13
2016-09-14T04:47:25.892Z,9.15
2016-09-14T04:48:25.890Z,9.19
2016-09-14T04:49:25.883Z,9.1
2016-09-14T04:50:25.876Z,9.17
2016-09-14T04:51:25.863Z,9.15
2016-09-14T04:52:25.860Z,9.24
2016-09-14T04:53:25.866Z,9.23
2016-09-14T04:54:25.838Z,9.19
2016-09-14T04:55:25.840Z,9.03
2016-09-14T04:56:25.845Z,9.06
2016-09-14T04:57:25.844Z,9.03
2016-09-14T04:58:25.821Z,9
2016-09-14T04:59:25.806Z,8.98
2016-09-14T05:00:25.794Z,9.06
2016-09-14T05:01:25.805Z,9
2016-09-14T05:02:25.779Z,8.97
2016-09-14T05:03:25.791Z,9.03
2016-09-14T05:04:25.755Z,9.06
2016-09-14T05:05:25.769Z,9.15
2016-09-14T05:06:25.778Z,9.06
2016-09-14T05:07:25.739Z,9.24
2016-09-14T05:08:25.756Z,9.4
2016-09-14T05:09:25.726Z,9.59
2016-09-14T05:10:25.736Z,9.6
2016-09-14T05:11:25.711Z,9.41
2016-09-14T05:12:25.720Z,9.4
2016-09-14T05:13:25.721Z,9.35
2016-09-14T05:14:25.693Z,9.52
2016-09-14T05:15:25.677Z,9.65
2016-09-14T05:16:25.672Z,9.78
2016-09-14T05:17:25.691Z,9.7
2016-09-14T05:18:25.669Z,9.7
2016-09-14T05:19:25.683Z,9.74
2016-09-14T05:20:25.664Z,9.85
2016-09-14T05:21:25.657Z,9.92
2016-09-14T05:22:25.662Z,10.07
2016-09-14T05:23:25.965Z,10.13
2016-09-14T05:24:25.630Z,10.26
2016-09-14T05:25:25.619Z,10.35
2016-09-14T05:26:25.602Z,10.55
2016-09-14T05:27:25.602Z,10.58
2016-09-14T05:28:25.600Z,10.6
2016-09-14T05:29:25.606Z,10.6
2016-09-14T05:30:25.575Z,10.47
2016-09-14T05:31:25.586Z,10.47
2016-09-14T05:32:25.572Z,10.54
2016-09-14T05:33:25.564Z,10.58
2016-09-14T05:34:25.572Z,10.63
2016-09-14T05:35:25.542Z,10.69
2016-09-14T05:36:25.541Z,10.68
2016-09-14T05:37:25.544Z,10.86
2016-09-14T05:38:25.553Z,10.88
2016-09-14T05:39:25.521Z,10.91
2016-09-14T05:40:25.534Z,10.94
2016-09-14T05:41:25.533Z,11.09
2016-09-14T05:42:25.508Z,11.16
2016-09-14T05:43:25.495Z,11.13
2016-09-14T05:44:25.500Z,11.11
2016-09-14T05:45:25.483Z,11.06
2016-09-14T05:46:25.487Z,11.03
2016-09-14T05:47:25.488Z,11.13
2016-09-14T05:48:25.467Z,11.12
2016-09-14T05:49:25.461Z,11.28
2016-09-14T05:50:25.457Z,11.6
2016-09-14T05:51:25.460Z,11.81
2016-09-14T05:52:25.428Z,11.96
2016-09-14T05:53:25.421Z,12
2016-09-14T05:54:25.430Z,12.21
2016-09-14T05:55:25.435Z,12.41
2016-09-14T05:56:25.421Z,12.55
2016-09-14T05:57:25.432Z,12.81
2016-09-14T05:58:25.409Z,12.98
2016-09-14T05:59:25.396Z,13.06
2016-09-14T06:00:25.387Z,13.21
2016-09-14T06:01:25.408Z,13.32
2016-09-14T06:02:25.383Z,13.25
2016-09-14T06:03:25.395Z,13.21
2016-09-14T06:04:25.374Z,13.03
2016-09-14T06:05:25.357Z,13.13
2016-09-14T06:06:25.357Z,13.03
2016-09-14T06:07:25.363Z,12.94
2016-09-14T06:08:25.345Z,12.92
2016-09-14T06:09:25.350Z,12.88
2016-09-14T06:10:25.353Z,12.73
2016-09-14T06:11:25.331Z,12.89
2016-09-14T06:12:25.336Z,13.04
2016-09-14T06:13:25.328Z,13.44
2016-09-14T06:14:25.302Z,13.71
2016-09-14T06:15:25.312Z,13.88
2016-09-14T06:16:25.312Z,14.16
2016-09-14T06:17:25.293Z,14.42
2016-09-14T06:18:25.288Z,14.59
2016-09-14T06:19:25.288Z,14.82
2016-09-14T06:20:25.277Z,14.91
2016-09-14T06:21:25.255Z,15.13
2016-09-14T06:22:25.281Z,15.23
2016-09-14T06:23:25.273Z,15.41
2016-09-14T06:24:25.274Z,15.6
2016-09-14T06:25:25.241Z,15.8
2016-09-14T06:26:25.233Z,15.99
2016-09-14T06:27:25.237Z,16.11
2016-09-14T06:28:25.248Z,16.08
2016-09-14T06:29:25.249Z,16.16
2016-09-14T06:30:25.236Z,16.17
2016-09-14T06:31:25.215Z,16.34
2016-09-14T06:32:25.233Z,16.55
2016-09-14T06:33:25.534Z,16.66
2016-09-14T06:34:25.214Z,16.77
2016-09-14T06:35:25.186Z,16.87
2016-09-14T06:36:25.197Z,16.95
2016-09-14T06:37:25.188Z,16.88
2016-09-14T06:38:25.180Z,16.84
2016-09-14T06:39:25.484Z,17.02
2016-09-14T06:40:25.159Z,17.05
2016-09-14T06:41:25.152Z,16.95
2016-09-14T06:42:25.169Z,16.95
2016-09-14T06:43:25.174Z,16.8
2016-09-14T06:44:25.141Z,16.73
2016-09-14T06:45:25.163Z,16.8
2016-09-14T06:46:25.152Z,16.55
2016-09-14T06:47:25.143Z,16.4
2016-09-14T06:48:25.459Z,16.29
2016-09-14T06:49:25.133Z,16.51
2016-09-14T06:50:25.126Z,16.92
2016-09-14T06:51:25.118Z,17.22
2016-09-14T06:52:25.126Z,17.38
2016-09-14T06:53:25.126Z,17.62
2016-09-14T06:54:25.101Z,17.89
2016-09-14T06:55:25.132Z,17.98
2016-09-14T06:56:25.395Z,18.05
2016-09-14T06:57:25.101Z,18.31
2016-09-14T06:58:25.105Z,18.23
2016-09-14T06:59:25.093Z,18.21
2016-09-14T07:00:25.101Z,18.26
2016-09-14T07:01:25.086Z,18.19
2016-09-14T07:02:25.106Z,18.28
2016-09-14T07:03:25.065Z,18.35
2016-09-14T07:04:25.106Z,18.39
2016-09-14T07:05:25.079Z,18.56
2016-09-14T07:06:25.078Z,18.69
2016-09-14T07:07:25.055Z,18.6
2016-09-14T07:08:25.076Z,18.36
2016-09-14T07:09:25.063Z,17.98
2016-09-14T07:10:25.070Z,17.98
2016-09-14T07:11:25.046Z,17.89
2016-09-14T07:12:25.070Z,17.98
2016-09-14T07:13:25.052Z,17.99
2016-09-14T07:14:25.049Z,17.89
2016-09-14T07:15:25.047Z,17.8
2016-09-14T07:16:25.042Z,17.65
2016-09-14T07:17:25.045Z,17.53
2016-09-14T07:18:25.055Z,17.35
2016-09-14T07:19:25.023Z,17.36
2016-09-14T07:20:25.028Z,17.18
2016-09-14T07:21:25.037Z,17.14
2016-09-14T07:22:25.017Z,17.18
2016-09-14T07:23:25.028Z,17.2
2016-09-14T07:24:24.996Z,17.39
2016-09-14T07:25:25.001Z,17.62
2016-09-14T07:26:25.006Z,17.95
2016-09-14T07:27:24.996Z,18.02
2016-09-14T07:28:25.010Z,18.11
2016-09-14T07:29:24.995Z,17.98
2016-09-14T07:30:24.996Z,17.89
2016-09-14T07:31:25.003Z,17.77
2016-09-14T07:32:24.976Z,17.89
2016-09-14T07:33:24.987Z,17.98
2016-09-14T07:34:24.989Z,18.04
2016-09-14T07:35:25.000Z,17.96
2016-09-14T07:36:24.953Z,17.94
2016-09-14T07:37:24.958Z,17.87
2016-09-14T07:38:24.981Z,17.89
2016-09-14T07:39:26.810Z,18.01
2016-09-14T07:40:24.940Z,18.13
2016-09-14T07:41:24.965Z,18.02
2016-09-14T07:42:24.962Z,17.98
2016-09-14T07:43:24.931Z,17.87
2016-09-14T07:44:24.928Z,18.02
2016-09-14T07:45:24.952Z,17.95
2016-09-14T07:46:24.935Z,17.86
2016-09-14T07:47:24.951Z,17.63
2016-09-14T07:48:24.946Z,17.8
2016-09-14T07:49:24.912Z,17.79
2016-09-14T07:50:24.944Z,17.4
2016-09-14T07:51:24.925Z,17.74
2016-09-14T07:52:24.906Z,17.83
2016-09-14T07:53:24.935Z,18.07
2016-09-14T07:54:24.912Z,18.35
2016-09-14T07:55:24.896Z,18.65
2016-09-14T07:56:24.917Z,18.66
2016-09-14T07:57:24.925Z,18.13
2016-09-14T07:58:24.912Z,18.39
2016-09-14T07:59:24.905Z,18.32
2016-09-14T08:00:24.891Z,18.25
2016-09-14T08:01:24.893Z,18.23
2016-09-14T08:02:24.897Z,18.01
2016-09-14T08:03:24.893Z,18.09
2016-09-14T08:04:24.896Z,18.19
2016-09-14T08:05:24.911Z,17.94
2016-09-14T08:06:25.176Z,17.45
2016-09-14T08:07:24.879Z,17.33
2016-09-14T08:08:24.885Z,17.32
2016-09-14T08:09:24.869Z,17.43
2016-09-14T08:10:24.858Z,17.54
2016-09-14T08:11:24.862Z,17.46
2016-09-14T08:12:24.880Z,17.77
2016-09-14T08:13:24.871Z,17.95
2016-09-14T08:14:24.851Z,18.34
2016-09-14T08:15:24.832Z,18.17
2016-09-14T08:16:24.875Z,17.96
2016-09-14T08:17:24.845Z,17.86
2016-09-14T08:18:24.840Z,18.07
2016-09-14T08:19:24.852Z,18.14
2016-09-14T08:20:24.853Z,17.8
2016-09-14T08:21:24.846Z,17.55
2016-09-14T08:22:24.824Z,17.45
2016-09-14T08:23:24.838Z,17.43
2016-09-14T08:24:24.832Z,17.55
2016-09-14T08:25:24.818Z,17.24
2016-09-14T08:26:24.802Z,16.99
2016-09-14T08:27:24.799Z,16.81
2016-09-14T08:28:24.819Z,16.62
2016-09-14T08:29:24.792Z,16.55
2016-09-14T08:30:24.813Z,16.77
2016-09-14T08:31:24.779Z,17.14
2016-09-14T08:32:24.785Z,17.21
2016-09-14T08:33:24.778Z,17.2
2016-09-14T08:34:24.768Z,17.3
2016-09-14T08:35:24.765Z,17.32
2016-09-14T08:36:24.777Z,16.99
2016-09-14T08:37:24.768Z,16.78
2016-09-14T08:38:24.764Z,16.52
2016-09-14T08:39:24.808Z,16.23
2016-09-14T08:40:24.758Z,15.95
2016-09-14T08:41:24.759Z,15.8
2016-09-14T08:42:24.751Z,15.73
2016-09-14T08:43:24.743Z,16.11
2016-09-14T08:44:24.726Z,16.16
2016-09-14T08:45:24.752Z,16.03
2016-09-14T08:46:24.740Z,16.3
2016-09-14T08:47:24.723Z,16.4
2016-09-14T08:48:24.732Z,16.1
2016-09-14T08:49:24.728Z,16.25
2016-09-14T08:50:24.720Z,16.54
2016-09-14T08:51:24.709Z,16.95
2016-09-14T08:52:24.697Z,16.87
2016-09-14T08:53:24.704Z,16.65
2016-09-14T08:54:24.711Z,15.98
2016-09-14T08:55:24.683Z,15.99
2016-09-14T08:56:24.697Z,16.07
2016-09-14T08:57:24.682Z,16.45
2016-09-14T08:58:24.686Z,16.47
2016-09-14T08:59:24.957Z,16.32
2016-09-14T09:00:24.663Z,16.18
2016-09-14T09:01:24.681Z,16.36
2016-09-14T09:02:24.658Z,16.62
2016-09-14T09:03:24.657Z,16.77
2016-09-14T09:04:24.651Z,17
2016-09-14T09:05:24.622Z,17.14
2016-09-14T09:06:24.959Z,17.2
2016-09-14T09:07:24.618Z,17.2
2016-09-14T09:08:24.636Z,16.84
2016-09-14T09:09:24.633Z,16.91
2016-09-14T09:10:24.609Z,16.84
2016-09-14T09:11:24.620Z,17.05
2016-09-14T09:12:24.615Z,16.9
2016-09-14T09:13:24.600Z,16.63
2016-09-14T09:14:24.599Z,16.52
2016-09-14T09:15:24.595Z,16.67
2016-09-14T09:16:24.609Z,16.54
2016-09-14T09:17:24.571Z,16.47
2016-09-14T09:18:24.595Z,16.3
2016-09-14T09:19:24.597Z,16.16
2016-09-14T09:20:24.571Z,16.34
2016-09-14T09:21:24.570Z,16.88
2016-09-14T09:22:24.562Z,17.3
2016-09-14T09:23:24.579Z,17.55
2016-09-14T09:24:24.539Z,17.65
2016-09-14T09:25:24.547Z,17.68
2016-09-14T09:26:24.537Z,17.62
2016-09-14T09:27:24.533Z,17.7
2016-09-14T09:28:24.538Z,17.71
2016-09-14T09:29:24.537Z,17.57
2016-09-14T09:30:24.537Z,17.7
2016-09-14T09:31:24.522Z,17.38
2016-09-14T09:32:24.516Z,17.36
2016-09-14T09:33:24.521Z,16.78
2016-09-14T09:34:24.517Z,16.51
2016-09-14T09:35:24.490Z,16.16
2016-09-14T09:36:24.513Z,15.98
2016-09-14T09:37:24.497Z,15.92
2016-09-14T09:38:24.512Z,16.18
2016-09-14T09:39:24.493Z,16.25
2016-09-14T09:40:24.485Z,16.4
2016-09-14T09:41:24.478Z,16.34
2016-09-14T09:42:24.458Z,16.29
2016-09-14T09:43:24.475Z,16.54
2016-09-14T09:44:24.457Z,16.7
2016-09-14T09:45:24.470Z,16.66
2016-09-14T09:46:24.439Z,16.63
2016-09-14T09:47:24.449Z,16.48
2016-09-14T09:48:24.429Z,16.48
2016-09-14T09:49:24.427Z,16.65
2016-09-14T09:50:24.439Z,16.47
2016-09-14T09:51:24.442Z,16.33
2016-09-14T09:52:24.421Z,16.23
2016-09-14T09:53:24.438Z,16.03
2016-09-14T09:54:24.402Z,16.04
2016-09-14T09:55:24.408Z,16.42
2016-09-14T09:56:24.395Z,16.77
2016-09-14T09:57:24.404Z,16.63
2016-09-14T09:58:24.408Z,16.23
2016-09-14T09:59:24.411Z,15.93
2016-09-14T10:00:24.386Z,15.81
2016-09-14T10:01:24.374Z,16.03
2016-09-14T10:02:24.389Z,16.47
2016-09-14T10:03:24.366Z,16.63
2016-09-14T10:04:24.380Z,16.65
2016-09-14T10:05:24.343Z,16.65
2016-09-14T10:06:24.368Z,16.65
2016-09-14T10:07:24.330Z,16.47
2016-09-14T10:08:24.369Z,16.65
2016-09-14T10:09:24.345Z,16.95
2016-09-14T10:10:24.328Z,16.81
2016-09-14T10:11:24.363Z,17.22
2016-09-14T10:12:24.329Z,17.2
2016-09-14T10:13:24.344Z,17.18
2016-09-14T10:14:24.335Z,17.06
2016-09-14T10:15:24.316Z,16.95
2016-09-14T10:16:24.295Z,17.14
2016-09-14T10:17:24.288Z,16.96
2016-09-14T10:18:24.296Z,16.59
2016-09-14T10:19:24.307Z,16.34
2016-09-14T10:20:24.296Z,16.23
2016-09-14T10:21:24.266Z,16.17
2016-09-14T10:22:24.271Z,16.1
2016-09-14T10:23:24.284Z,16.06
2016-09-14T10:24:24.275Z,15.96
2016-09-14T10:25:24.262Z,16.11
2016-09-14T10:26:24.245Z,16.17
2016-09-14T10:27:24.277Z,16.32
2016-09-14T10:28:24.275Z,16.26
2016-09-14T10:29:24.249Z,16.36
2016-09-14T10:30:24.256Z,16.75
2016-09-14T10:31:24.246Z,16.63
2016-09-14T10:32:24.222Z,16.63
2016-09-14T10:33:24.221Z,16.66
2016-09-14T10:34:24.226Z,17.02
2016-09-14T10:35:24.213Z,16.87
2016-09-14T10:36:24.214Z,16.65
2016-09-14T10:37:24.210Z,16.47
2016-09-14T10:38:24.203Z,16.54
2016-09-14T10:39:24.196Z,16.54
2016-09-14T10:40:24.193Z,16.36
2016-09-14T10:41:24.210Z,15.33
2016-09-14T10:42:24.187Z,14.69
2016-09-14T10:43:24.181Z,14.29
2016-09-14T10:44:24.170Z,14.21
2016-09-14T10:45:24.168Z,13.76
2016-09-14T10:46:24.171Z,13.44
2016-09-14T10:47:24.170Z,14.02
2016-09-14T10:48:24.161Z,13.8
2016-09-14T10:49:24.158Z,13.55
2016-09-14T10:50:24.145Z,13.14
2016-09-14T10:51:24.121Z,12.94
2016-09-14T10:52:24.127Z,12.81
2016-09-14T10:53:24.127Z,13.01
2016-09-14T10:54:24.115Z,13.84
2016-09-14T10:55:24.113Z,13.99
2016-09-14T10:56:24.116Z,13.86
2016-09-14T10:57:24.118Z,13.86
2016-09-14T10:58:24.085Z,13.72
2016-09-14T10:59:24.077Z,13.9
2016-09-14T11:00:24.099Z,13.68
2016-09-14T11:01:24.064Z,13.65
2016-09-14T11:02:24.058Z,13.71
2016-09-14T11:03:24.061Z,13.51
2016-09-14T11:04:24.052Z,13.63
2016-09-14T11:05:24.037Z,13.76
2016-09-14T11:06:24.030Z,14.12
2016-09-14T11:07:24.060Z,14.2
2016-09-14T11:08:24.023Z,14.98
2016-09-14T11:09:24.033Z,15.88
2016-09-14T11:10:24.023Z,15.93
2016-09-14T11:11:24.025Z,15.67
2016-09-14T11:12:24.014Z,15.96
2016-09-14T11:13:24.016Z,16.75
2016-09-14T11:14:23.994Z,16.33
2016-09-14T11:15:23.983Z,16.3
2016-09-14T11:16:23.989Z,16.32
2016-09-14T11:17:23.993Z,16.42
2016-09-14T11:18:23.996Z,16.85
2016-09-14T11:19:23.971Z,17.21
2016-09-14T11:20:23.981Z,17.62
2016-09-14T11:21:23.995Z,17.4
2016-09-14T11:22:23.972Z,16.3
2016-09-14T11:23:23.989Z,15.28
2016-09-14T11:24:23.963Z,14.53
2016-09-14T11:25:23.944Z,14.17
2016-09-14T11:26:23.945Z,13.72
2016-09-14T11:27:23.959Z,13.75
2016-09-14T11:28:23.948Z,13.86
2016-09-14T11:29:23.931Z,13.88
2016-09-14T11:30:23.940Z,14.48
2016-09-14T11:31:23.909Z,15.18
2016-09-14T11:32:23.919Z,15.68
2016-09-14T11:33:23.930Z,16.01
2016-09-14T11:34:23.921Z,15.73
2016-09-14T11:35:23.912Z,15.55
2016-09-14T11:36:23.898Z,15.31
2016-09-14T11:37:23.903Z,15.27
2016-09-14T11:38:23.881Z,15.11
2016-09-14T11:39:23.910Z,15.04
2016-09-14T11:40:23.873Z,15.13
2016-09-14T11:41:23.856Z,15.3
2016-09-14T11:42:23.882Z,15.05
2016-09-14T11:43:23.875Z,15.05
2016-09-14T11:44:23.860Z,14.93
2016-09-14T11:45:23.842Z,14.79
2016-09-14T11:46:23.864Z,14.72
2016-09-14T11:47:23.853Z,14.52
2016-09-14T11:48:23.834Z,14.39
2016-09-14T11:49:23.824Z,15.04
2016-09-14T11:50:23.816Z,15.43
2016-09-14T11:51:23.828Z,15.99
2016-09-14T11:52:23.805Z,16.44
2016-09-14T11:53:23.809Z,16.75
2016-09-14T11:54:23.818Z,16.7
2016-09-14T11:55:23.815Z,16.59
2016-09-14T11:56:23.782Z,15.92
2016-09-14T11:57:23.804Z,15.31
2016-09-14T11:58:23.803Z,14.94
2016-09-14T11:59:23.773Z,15.28
2016-09-14T12:00:23.794Z,15.71
2016-09-14T12:01:23.777Z,15.85
2016-09-14T12:02:23.787Z,16.04
2016-09-14T12:03:23.760Z,15.73
2016-09-14T12:04:23.763Z,14.93
2016-09-14T12:05:23.761Z,14.39
2016-09-14T12:06:23.751Z,14.87
2016-09-14T12:07:23.742Z,15.16
2016-09-14T12:08:23.737Z,15.07
2016-09-14T12:09:23.730Z,15.13
2016-09-14T12:10:23.737Z,15.3
2016-09-14T12:11:23.739Z,15.35
2016-09-14T12:12:23.737Z,15.77
2016-09-14T12:13:23.708Z,15.88
2016-09-14T12:14:23.710Z,15.28
2016-09-14T12:15:23.721Z,14.72
2016-09-14T12:16:23.692Z,14.05
2016-09-14T12:17:23.682Z,13.98
2016-09-14T12:18:23.675Z,13.65
2016-09-14T12:19:23.679Z,13.44
2016-09-14T12:20:23.686Z,14.12
2016-09-14T12:21:23.656Z,14.87
2016-09-14T12:22:23.653Z,15.43
2016-09-14T12:23:23.664Z,15.96
2016-09-14T12:24:23.653Z,16.01
2016-09-14T12:25:23.650Z,15.58
2016-09-14T12:26:23.629Z,15.09
2016-09-14T12:27:23.643Z,14.66
2016-09-14T12:28:23.637Z,14.44
2016-09-14T12:29:23.631Z,13.93
2016-09-14T12:30:23.642Z,13.76
2016-09-14T12:31:23.630Z,13.94
2016-09-14T12:32:23.623Z,13.84
2016-09-14T12:33:23.611Z,14.54
2016-09-14T12:34:23.614Z,14.86
2016-09-14T12:35:23.579Z,14.35
2016-09-14T12:36:23.574Z,14.01
2016-09-14T12:37:23.603Z,14.75
2016-09-14T12:38:23.565Z,14.67
2016-09-14T12:39:23.573Z,14.6
2016-09-14T12:40:23.570Z,14.85
2016-09-14T12:41:23.554Z,14.67
2016-09-14T12:42:23.554Z,14.35
2016-09-14T12:43:23.536Z,13.99
2016-09-14T12:44:23.546Z,13.76
2016-09-14T12:45:23.544Z,13.71
2016-09-14T12:46:23.543Z,13.55
2016-09-14T12:47:23.544Z,13.69
2016-09-14T12:48:23.531Z,13.55
2016-09-14T12:49:23.514Z,13.41
2016-09-14T12:50:23.535Z,13.29
2016-09-14T12:51:23.504Z,13.28
2016-09-14T12:52:23.496Z,13.09
2016-09-14T12:53:23.504Z,12.92
2016-09-14T12:54:23.496Z,12.76
2016-09-14T12:55:23.485Z,12.46
2016-09-14T12:56:23.465Z,12.54
2016-09-14T12:57:23.494Z,12.67
2016-09-14T12:58:23.460Z,12.52
2016-09-14T12:59:23.484Z,12.33
2016-09-14T13:00:23.482Z,12.44
2016-09-14T13:01:23.470Z,12.63
2016-09-14T13:02:23.440Z,13.1
2016-09-14T13:03:23.445Z,13.72
2016-09-14T13:04:23.454Z,13.61
2016-09-14T13:05:23.461Z,13.39
2016-09-14T13:06:23.423Z,13.1